createdAt,value
2018-05-04T00:02:00.584Z,28.77
2018-05-04T00:04:29.236Z,27.63
2018-05-04T00:06:57.625Z,28.90
2018-05-04T00:09:26.059Z,29.53
2018-05-04T00:11:54.449Z,29.07
2018-05-04T00:14:22.844Z,28.77
2018-05-04T00:16:51.235Z,28.03
2018-05-04T00:19:19.662Z,29.57
2018-05-04T00:21:48.066Z,29.97
2018-05-04T00:24:16.635Z,28.93
2018-05-04T00:26:45.021Z,29.70
2018-05-04T00:29:13.447Z,31.97
2018-05-04T00:31:41.862Z,28.83
2018-05-04T00:34:10.237Z,30.13
2018-05-04T00:36:38.638Z,31.40
2018-05-04T00:39:07.034Z,32.83
2018-05-04T00:41:35.430Z,31.00
2018-05-04T00:44:04.060Z,31.13
2018-05-04T00:46:32.446Z,34.03
2018-05-04T00:49:00.849Z,32.27
2018-05-04T00:51:29.236Z,31.87
2018-05-04T00:54:08.606Z,32.30
2018-05-04T00:56:36.977Z,32.07
2018-05-04T00:59:05.366Z,32.77
2018-05-04T01:01:33.848Z,32.20
2018-05-04T01:04:02.234Z,31.47
2018-05-04T01:06:30.648Z,31.30
2018-05-04T01:08:59.049Z,32.93
2018-05-04T01:11:27.450Z,32.37
2018-05-04T01:13:55.831Z,32.37
2018-05-04T01:16:24.228Z,35.10
2018-05-04T01:18:52.678Z,32.37
2018-05-04T01:21:21.067Z,32.40
2018-05-04T01:23:49.465Z,33.33
2018-05-04T01:26:17.861Z,31.90
2018-05-04T01:28:46.134Z,31.20
2018-05-04T01:31:14.506Z,31.57
2018-05-04T01:33:42.918Z,31.93
2018-05-04T01:36:11.325Z,31.90
2018-05-04T01:38:39.734Z,31.97
2018-05-04T01:41:08.128Z,32.70
2018-05-04T01:43:36.501Z,30.30
2018-05-04T01:46:04.547Z,30.90
2018-05-04T01:48:32.929Z,30.80
2018-05-04T01:51:01.313Z,31.20
2018-05-04T01:53:29.839Z,31.00
2018-05-04T01:55:58.273Z,31.13
2018-05-04T01:58:26.711Z,31.90
2018-05-04T02:00:55.113Z,29.20
2018-05-04T02:03:23.491Z,29.80
2018-05-04T02:05:51.893Z,28.97
2018-05-04T02:08:20.339Z,30.17
2018-05-04T02:10:48.736Z,28.80
2018-05-04T02:13:17.130Z,29.93
2018-05-04T02:15:45.509Z,29.10
2018-05-04T02:18:13.891Z,29.97
2018-05-04T02:20:42.261Z,31.47
2018-05-04T02:23:10.643Z,31.40
2018-05-04T02:25:39.096Z,31.50
2018-05-04T02:28:07.487Z,32.00
2018-05-04T02:30:35.671Z,30.90
2018-05-04T02:33:04.078Z,29.50
2018-05-04T02:35:32.504Z,31.50
2018-05-04T02:38:00.880Z,30.17
2018-05-04T02:40:29.267Z,31.50
2018-05-04T02:42:57.631Z,31.40
2018-05-04T02:45:26.005Z,30.33
2018-05-04T02:47:54.398Z,30.80
2018-05-04T02:50:22.776Z,30.37
2018-05-04T02:52:51.165Z,33.60
2018-05-04T02:55:19.971Z,31.50
2018-05-04T02:57:48.536Z,31.93
2018-05-04T03:00:16.910Z,31.67
2018-05-04T03:02:45.293Z,31.80
2018-05-04T03:05:13.731Z,31.77
2018-05-04T03:07:42.131Z,29.40
2018-05-04T03:10:10.537Z,31.53
2018-05-04T03:12:38.930Z,32.90
2018-05-04T03:15:09.076Z,32.77
2018-05-04T03:17:37.474Z,30.00
2018-05-04T03:20:05.309Z,30.53
2018-05-04T03:22:33.685Z,33.20
2018-05-04T03:25:02.065Z,29.83
2018-05-04T03:27:30.441Z,29.90
2018-05-04T03:29:58.843Z,30.33
2018-05-04T03:32:27.232Z,31.77
2018-05-04T03:34:56.213Z,29.77
2018-05-04T03:37:24.632Z,31.20
2018-05-04T03:39:54.665Z,30.27
2018-05-04T03:42:23.052Z,31.20
2018-05-04T03:44:51.427Z,30.60
2018-05-04T03:47:19.600Z,29.63
2018-05-04T03:49:48.014Z,28.83
2018-05-04T03:52:16.580Z,28.37
2018-05-04T03:54:44.692Z,29.63
2018-05-04T03:57:24.111Z,29.50
2018-05-04T04:00:03.657Z,30.07
2018-05-04T04:02:43.343Z,32.93
2018-05-04T04:05:11.727Z,30.33
2018-05-04T04:07:40.304Z,29.47
2018-05-04T04:10:10.321Z,32.90
2018-05-04T04:12:38.722Z,29.50
2018-05-04T04:15:10.100Z,32.47
2018-05-04T04:17:38.495Z,31.90
2018-05-04T04:20:09.304Z,31.17
2018-05-04T04:22:37.692Z,29.37
2018-05-04T04:25:06.184Z,30.40
2018-05-04T04:27:34.572Z,29.00
2018-05-04T04:30:02.980Z,32.40
2018-05-04T04:32:31.359Z,31.40
2018-05-04T04:34:59.938Z,30.90
2018-05-04T04:37:28.345Z,30.17
2018-05-04T04:39:56.752Z,30.80
2018-05-04T04:42:25.190Z,30.83
2018-05-04T04:44:53.579Z,29.30
2018-05-04T04:47:21.989Z,29.00
2018-05-04T04:49:50.382Z,28.90
2018-05-04T04:52:18.793Z,29.47
2018-05-04T04:54:47.184Z,30.30
2018-05-04T04:57:15.599Z,28.87
2018-05-04T04:59:44.015Z,29.13
2018-05-04T05:02:12.428Z,30.33
2018-05-04T05:04:40.812Z,29.20
2018-05-04T05:07:09.174Z,27.10
2018-05-04T05:09:37.317Z,30.20
2018-05-04T05:12:05.707Z,28.07
2018-05-04T05:14:34.092Z,27.77
2018-05-04T05:17:02.467Z,29.47
2018-05-04T05:19:30.849Z,30.40
2018-05-04T05:21:59.300Z,29.40
2018-05-04T05:24:27.686Z,29.10
2018-05-04T05:26:56.116Z,28.47
2018-05-04T05:29:24.496Z,29.07
2018-05-04T05:31:52.900Z,27.47
2018-05-04T05:34:21.302Z,27.93
2018-05-04T05:36:49.683Z,28.90
2018-05-04T05:39:18.108Z,26.67
2018-05-04T05:41:46.482Z,29.60
2018-05-04T05:44:14.851Z,26.80
2018-05-04T05:46:43.253Z,28.17
2018-05-04T05:49:11.656Z,26.90
2018-05-04T05:51:39.808Z,27.40
2018-05-04T05:54:08.188Z,25.23
2018-05-04T05:56:36.808Z,25.27
2018-05-04T05:59:05.274Z,25.20
2018-05-04T06:01:33.677Z,27.10
2018-05-04T06:04:02.093Z,27.20
2018-05-04T06:06:30.654Z,27.20
2018-05-04T06:08:59.043Z,25.60
2018-05-04T06:11:27.433Z,26.40
2018-05-04T06:13:56.574Z,25.87
2018-05-04T06:16:24.736Z,28.17
2018-05-04T06:18:53.114Z,26.23
2018-05-04T06:21:21.483Z,26.07
2018-05-04T06:23:49.870Z,25.57
2018-05-04T06:26:18.266Z,26.50
2018-05-04T06:28:46.640Z,24.80
2018-05-04T06:31:15.014Z,24.23
2018-05-04T06:33:43.440Z,24.47
2018-05-04T06:36:11.566Z,24.60
2018-05-04T06:38:39.737Z,23.80
2018-05-04T06:41:08.132Z,23.67
2018-05-04T06:43:36.509Z,23.40
2018-05-04T06:46:04.889Z,24.43
2018-05-04T06:48:33.273Z,24.00
2018-05-04T06:51:01.680Z,25.07
2018-05-04T06:53:30.120Z,25.03
2018-05-04T06:55:58.539Z,22.97
2018-05-04T06:58:26.963Z,25.90
2018-05-04T07:00:55.354Z,25.87
2018-05-04T07:03:23.757Z,24.93
2018-05-04T07:05:52.146Z,24.50
2018-05-04T07:08:20.522Z,22.20
2018-05-04T07:10:48.909Z,23.17
2018-05-04T07:13:17.309Z,22.70
2018-05-04T07:15:45.729Z,23.60
2018-05-04T07:18:14.125Z,41.23
2018-05-04T07:20:42.501Z,23.33
2018-05-04T07:23:10.882Z,24.17
2018-05-04T07:25:39.034Z,23.50
2018-05-04T07:28:07.431Z,22.33
2018-05-04T07:30:35.822Z,21.97
2018-05-04T07:33:04.249Z,22.33
2018-05-04T07:35:32.709Z,23.77
2018-05-04T07:38:00.865Z,25.10
2018-05-04T07:40:29.273Z,22.93
2018-05-04T07:42:57.458Z,23.70
2018-05-04T07:45:26.017Z,24.57
2018-05-04T07:47:54.410Z,23.10
2018-05-04T07:50:22.805Z,24.97
2018-05-04T07:52:51.228Z,23.60
2018-05-04T07:55:19.693Z,26.80
2018-05-04T07:57:48.195Z,25.43
2018-05-04T08:00:16.584Z,23.90
2018-05-04T08:02:45.103Z,23.80
2018-05-04T08:05:13.764Z,25.23
2018-05-04T08:07:42.247Z,23.40
2018-05-04T08:10:10.645Z,26.63
2018-05-04T08:12:39.025Z,22.20
2018-05-04T08:15:10.494Z,21.93
2018-05-04T08:17:38.906Z,23.27
2018-05-04T08:20:09.308Z,22.50
2018-05-04T08:22:37.805Z,23.13
2018-05-04T08:25:09.437Z,22.80
2018-05-04T08:27:37.847Z,23.87
2018-05-04T08:30:08.635Z,22.40
2018-05-04T08:32:37.029Z,23.30
2018-05-04T08:35:08.580Z,23.00
2018-05-04T08:37:36.731Z,22.83
2018-05-04T08:40:05.080Z,22.40
2018-05-04T08:42:35.577Z,21.87
2018-05-04T08:45:05.165Z,24.57
2018-05-04T08:47:34.484Z,22.17
2018-05-04T08:50:02.888Z,23.63
2018-05-04T08:52:31.268Z,23.23
2018-05-04T08:54:59.662Z,23.13
2018-05-04T08:57:28.128Z,22.60
2018-05-04T08:59:56.646Z,24.37
2018-05-04T09:02:24.810Z,22.70
2018-05-04T09:04:53.178Z,23.83
2018-05-04T09:07:21.657Z,24.13
2018-05-04T09:09:50.054Z,24.10
2018-05-04T09:12:18.480Z,23.13
2018-05-04T09:14:50.217Z,21.87
2018-05-04T09:17:18.609Z,21.30
2018-05-04T09:19:47.047Z,22.00
2018-05-04T09:22:15.604Z,23.23
2018-05-04T09:24:43.989Z,22.13
2018-05-04T09:27:12.362Z,22.30
2018-05-04T09:29:40.750Z,21.13
2018-05-04T09:32:09.149Z,21.80
2018-05-04T09:34:37.578Z,23.97
2018-05-04T09:37:05.977Z,20.87
2018-05-04T09:39:34.389Z,21.80
2018-05-04T09:42:02.774Z,23.27
2018-05-04T09:44:31.160Z,22.63
2018-05-04T09:46:59.534Z,22.67
2018-05-04T09:49:27.932Z,23.80
2018-05-04T09:51:56.325Z,23.67
2018-05-04T09:54:24.708Z,24.67
2018-05-04T09:56:53.093Z,23.60
2018-05-04T09:59:21.473Z,21.07
2018-05-04T10:01:49.865Z,24.60
2018-05-04T10:04:18.260Z,24.10
2018-05-04T10:06:46.637Z,22.87
2018-05-04T10:09:15.050Z,23.40
2018-05-04T10:11:43.593Z,23.40
2018-05-04T10:14:11.972Z,21.63
2018-05-04T10:16:40.363Z,21.87
2018-05-04T10:19:08.744Z,23.40
2018-05-04T10:21:37.117Z,24.70
2018-05-04T10:24:05.502Z,24.43
2018-05-04T10:26:33.895Z,21.50
2018-05-04T10:29:02.326Z,23.07
2018-05-04T10:31:30.794Z,22.47
2018-05-04T10:33:59.311Z,25.63
2018-05-04T10:36:27.696Z,24.47
2018-05-04T10:38:57.109Z,23.47
2018-05-04T10:41:25.565Z,23.50
2018-05-04T10:43:53.954Z,25.20
2018-05-04T10:46:22.392Z,25.63
2018-05-04T10:48:50.769Z,25.07
2018-05-04T10:51:19.167Z,23.87
2018-05-04T10:53:47.649Z,25.57
2018-05-04T10:56:15.818Z,26.57
2018-05-04T10:58:44.199Z,23.63
2018-05-04T11:01:12.590Z,24.70
2018-05-04T11:03:40.960Z,22.27
2018-05-04T11:06:09.336Z,24.00
2018-05-04T11:08:37.770Z,23.57
2018-05-04T11:11:05.925Z,25.93
2018-05-04T11:13:34.313Z,23.67
2018-05-04T11:16:02.698Z,24.03
2018-05-04T11:18:31.273Z,25.43
2018-05-04T11:20:59.643Z,23.93
2018-05-04T11:23:28.040Z,23.90
2018-05-04T11:25:56.426Z,24.20
2018-05-04T11:28:24.830Z,27.03
2018-05-04T11:30:53.221Z,25.10
2018-05-04T11:33:21.792Z,26.57
2018-05-04T11:35:50.167Z,24.70
2018-05-04T11:38:18.564Z,24.77
2018-05-04T11:40:46.952Z,25.17
2018-05-04T11:43:15.348Z,26.40
2018-05-04T11:45:43.726Z,24.50
2018-05-04T11:48:12.123Z,23.30
2018-05-04T11:50:40.504Z,25.30
2018-05-04T11:53:08.886Z,25.00
2018-05-04T11:55:37.265Z,26.43
2018-05-04T11:58:05.653Z,25.60
2018-05-04T12:00:34.039Z,26.07
2018-05-04T12:03:02.455Z,26.40
2018-05-04T12:05:30.855Z,28.93
2018-05-04T12:07:59.257Z,26.80
2018-05-04T12:10:27.661Z,27.17
2018-05-04T12:12:56.003Z,28.70
2018-05-04T12:15:24.396Z,27.10
2018-05-04T12:17:52.790Z,27.80
2018-05-04T12:20:21.149Z,28.57
2018-05-04T12:22:49.553Z,28.10
2018-05-04T12:25:18.176Z,27.03
2018-05-04T12:27:46.805Z,30.60
2018-05-04T12:30:15.389Z,28.40
2018-05-04T12:32:43.772Z,28.67
2018-05-04T12:35:12.148Z,27.83
2018-05-04T12:37:40.547Z,27.93
2018-05-04T12:40:09.445Z,28.73
2018-05-04T12:42:37.842Z,26.17
2018-05-04T12:45:08.863Z,27.10
2018-05-04T12:47:37.272Z,28.53
2018-05-04T12:50:07.815Z,28.53
2018-05-04T12:52:36.207Z,31.17
2018-05-04T12:55:07.188Z,29.70
2018-05-04T12:57:36.929Z,27.27
2018-05-04T13:00:07.553Z,28.33
2018-05-04T13:02:36.403Z,29.17
2018-05-04T13:05:06.496Z,29.93
2018-05-04T13:07:34.886Z,28.80
2018-05-04T13:10:03.278Z,29.00
2018-05-04T13:12:31.672Z,30.97
2018-05-04T13:15:00.139Z,29.40
2018-05-04T13:17:28.727Z,30.57
2018-05-04T13:19:57.007Z,31.90
2018-05-04T13:22:25.419Z,28.63
2018-05-04T13:24:53.822Z,29.40
2018-05-04T13:27:22.210Z,31.20
2018-05-04T13:29:50.630Z,25.37
2018-05-04T13:32:19.013Z,28.00
2018-05-04T13:34:47.389Z,27.80
2018-05-04T13:37:15.808Z,25.80
2018-05-04T13:39:44.228Z,25.03
2018-05-04T13:42:12.711Z,26.07
2018-05-04T13:44:41.357Z,23.37
2018-05-04T13:47:09.914Z,23.83
2018-05-04T13:49:38.307Z,22.20
2018-05-04T13:52:06.691Z,21.80
2018-05-04T13:54:35.094Z,20.10
2018-05-04T13:57:03.505Z,23.60
2018-05-04T13:59:31.889Z,25.63
2018-05-04T14:02:00.045Z,26.97
2018-05-04T14:04:28.686Z,20.63
2018-05-04T14:06:56.861Z,21.30
2018-05-04T14:09:26.384Z,19.17
2018-05-04T14:11:54.813Z,21.17
2018-05-04T14:14:22.961Z,18.30
2018-05-04T14:16:51.339Z,18.83
2018-05-04T14:19:19.734Z,16.77
2018-05-04T14:21:48.157Z,16.63
2018-05-04T14:24:16.742Z,17.47
2018-05-04T14:26:45.187Z,18.37
2018-05-04T14:29:13.601Z,15.70
2018-05-04T14:31:41.986Z,16.23
2018-05-04T14:34:10.381Z,17.00
2018-05-04T14:36:38.840Z,17.87
2018-05-04T14:39:07.230Z,16.80
2018-05-04T14:41:35.617Z,16.03
2018-05-04T14:44:04.015Z,16.30
2018-05-04T14:46:32.413Z,19.13
2018-05-04T14:49:00.855Z,16.93
2018-05-04T14:51:29.253Z,23.80
2018-05-04T14:53:57.962Z,26.47
2018-05-04T14:56:26.181Z,26.80
2018-05-04T14:58:54.590Z,28.87
2018-05-04T15:01:22.996Z,27.40
2018-05-04T15:03:51.437Z,27.53
2018-05-04T15:06:19.829Z,27.90
2018-05-04T15:08:48.238Z,26.70
2018-05-04T15:11:16.640Z,28.03
2018-05-04T15:13:45.060Z,30.27
2018-05-04T15:16:13.525Z,27.20
2018-05-04T15:18:41.932Z,29.03
2018-05-04T15:21:10.335Z,28.60
2018-05-04T15:23:38.951Z,28.77
2018-05-04T15:26:08.296Z,25.10
2018-05-04T15:28:36.472Z,25.23
2018-05-04T15:31:04.562Z,27.53
2018-05-04T15:33:32.987Z,27.20
2018-05-04T15:36:01.367Z,26.87
2018-05-04T15:38:29.849Z,27.70
2018-05-04T15:40:58.231Z,27.10
2018-05-04T15:43:26.310Z,27.30
2018-05-04T15:45:54.705Z,25.27
2018-05-04T15:48:28.539Z,26.47
2018-05-04T15:51:02.371Z,25.93
2018-05-04T15:53:30.779Z,26.20
2018-05-04T15:55:59.170Z,27.40
2018-05-04T15:58:27.575Z,27.60
2018-05-04T16:00:55.965Z,28.77
2018-05-04T16:03:24.420Z,27.43
2018-05-04T16:05:52.833Z,27.07
2018-05-04T16:08:21.211Z,27.93
2018-05-04T16:10:49.632Z,27.57
2018-05-04T16:13:18.030Z,25.50
2018-05-04T16:15:46.417Z,26.07
2018-05-04T16:18:14.824Z,26.70
2018-05-04T16:20:43.226Z,26.00
2018-05-04T16:23:11.634Z,28.27
2018-05-04T16:25:40.050Z,27.57
2018-05-04T16:28:09.246Z,25.53
2018-05-04T16:30:37.649Z,26.77
2018-05-04T16:33:05.806Z,26.47
2018-05-04T16:35:34.221Z,25.30
2018-05-04T16:38:02.605Z,16.10
2018-05-04T16:40:30.983Z,11.80
2018-05-04T16:42:59.357Z,10.50
2018-05-04T16:45:27.754Z,10.33
2018-05-04T16:48:01.542Z,8.43
2018-05-04T16:50:29.968Z,10.00
2018-05-04T16:52:58.505Z,8.80
2018-05-04T16:55:26.672Z,8.33
2018-05-04T16:57:54.836Z,8.13
2018-05-04T17:00:23.042Z,7.50
2018-05-04T17:02:51.415Z,7.60
2018-05-04T17:05:19.839Z,9.13
2018-05-04T17:07:48.006Z,10.03
2018-05-04T17:10:16.996Z,9.27
2018-05-04T17:12:45.235Z,11.90
2018-05-04T17:15:13.411Z,10.30
2018-05-04T17:17:41.554Z,9.40
2018-05-04T17:20:09.796Z,9.23
2018-05-04T17:22:38.044Z,11.07
2018-05-04T17:25:06.542Z,10.80
2018-05-04T17:27:34.970Z,9.93
2018-05-04T17:30:04.121Z,14.27
2018-05-04T17:32:33.702Z,13.80
2018-05-04T17:35:02.119Z,12.90
2018-05-04T17:37:30.548Z,14.10
2018-05-04T17:39:59.725Z,13.77
2018-05-04T17:42:28.136Z,15.33
2018-05-04T17:44:56.535Z,15.90
2018-05-04T17:47:24.966Z,17.03
2018-05-04T17:49:53.386Z,14.87
2018-05-04T17:52:21.787Z,16.23
2018-05-04T17:54:50.244Z,16.13
2018-05-04T17:57:18.653Z,14.83
2018-05-04T17:59:47.701Z,15.90
2018-05-04T18:02:16.161Z,16.77
2018-05-04T18:04:44.533Z,15.27
2018-05-04T18:07:12.915Z,16.77
2018-05-04T18:09:41.706Z,16.33
2018-05-04T18:12:10.104Z,18.30
2018-05-04T18:14:42.865Z,16.97
2018-05-04T18:17:11.718Z,21.73
2018-05-04T18:19:40.151Z,20.20
2018-05-04T18:22:08.533Z,19.20
2018-05-04T18:24:36.916Z,19.03
2018-05-04T18:27:05.317Z,20.83
2018-05-04T18:29:34.558Z,19.20
2018-05-04T18:32:02.951Z,19.00
2018-05-04T18:34:31.381Z,18.10
2018-05-04T18:37:00.537Z,19.70
2018-05-04T18:39:28.983Z,21.40
2018-05-04T18:41:57.372Z,21.60
2018-05-04T18:44:25.767Z,21.23
2018-05-04T18:46:54.212Z,20.93
2018-05-04T18:49:22.615Z,21.30
2018-05-04T18:51:51.027Z,21.80
2018-05-04T18:54:19.625Z,20.70
2018-05-04T18:56:48.031Z,22.40
2018-05-04T18:59:16.449Z,25.73
2018-05-04T19:01:44.951Z,24.90
2018-05-04T19:04:13.399Z,23.20
2018-05-04T19:06:41.787Z,23.30
2018-05-04T19:09:10.188Z,23.30
2018-05-04T19:11:38.588Z,23.27
2018-05-04T19:14:06.979Z,23.03
2018-05-04T19:16:35.383Z,25.00
2018-05-04T19:19:03.805Z,26.00
2018-05-04T19:21:32.246Z,25.27
2018-05-04T19:24:00.651Z,25.77
2018-05-04T19:26:29.082Z,25.13
2018-05-04T19:28:57.390Z,25.20
2018-05-04T19:31:25.821Z,24.97
2018-05-04T19:33:54.957Z,25.67
2018-05-04T19:36:23.352Z,24.30
2018-05-04T19:38:51.756Z,23.20
2018-05-04T19:41:20.373Z,24.90
2018-05-04T19:43:49.892Z,25.77
2018-05-04T19:46:18.300Z,26.30
2018-05-04T19:48:46.852Z,29.33
2018-05-04T19:51:15.390Z,28.33
2018-05-04T19:53:44.719Z,29.20
2018-05-04T19:56:13.111Z,28.23
2018-05-04T19:58:41.529Z,29.60
2018-05-04T20:01:10.137Z,30.70
2018-05-04T20:03:40.243Z,31.07
2018-05-04T20:06:09.867Z,31.63
2018-05-04T20:08:39.476Z,30.53
2018-05-04T20:11:07.857Z,33.63
2018-05-04T20:13:36.258Z,32.03
2018-05-04T20:16:04.633Z,30.13
2018-05-04T20:18:33.104Z,31.33
2018-05-04T20:21:02.433Z,31.00
2018-05-04T20:23:30.824Z,34.40
2018-05-04T20:25:59.213Z,30.57
2018-05-04T20:28:30.894Z,30.50
2018-05-04T20:30:59.315Z,27.67
2018-05-04T20:33:27.766Z,28.33
2018-05-04T20:35:56.350Z,28.47
2018-05-04T20:38:24.854Z,29.87
2018-05-04T20:40:53.048Z,29.40
2018-05-04T20:43:21.499Z,29.47
2018-05-04T20:45:49.883Z,31.83
2018-05-04T20:48:18.295Z,30.10
2018-05-04T20:50:47.859Z,30.30
2018-05-04T20:53:16.922Z,30.30
2018-05-04T20:55:45.335Z,29.87
2018-05-04T20:58:13.756Z,29.20
2018-05-04T21:00:42.171Z,30.87
2018-05-04T21:03:13.071Z,29.40
2018-05-04T21:05:41.955Z,29.23
2018-05-04T21:08:10.099Z,28.73
2018-05-04T21:10:38.529Z,29.80
2018-05-04T21:13:06.930Z,31.27
2018-05-04T21:15:35.753Z,30.27
2018-05-04T21:18:04.141Z,28.30
2018-05-04T21:20:32.524Z,30.33
2018-05-04T21:23:00.957Z,32.20
2018-05-04T21:25:30.042Z,28.80
2018-05-04T21:27:59.337Z,32.17
2018-05-04T21:30:28.787Z,30.53
2018-05-04T21:32:59.002Z,31.47
2018-05-04T21:35:29.906Z,31.07
2018-05-04T21:37:58.420Z,31.60
2018-05-04T21:40:26.874Z,31.43
2018-05-04T21:42:55.083Z,32.47
2018-05-04T21:45:23.477Z,31.10
2018-05-04T21:47:52.202Z,30.47
2018-05-04T21:50:20.646Z,32.80
2018-05-04T21:52:49.069Z,33.00
2018-05-04T21:55:17.223Z,32.90
2018-05-04T21:57:45.686Z,30.47
2018-05-04T22:00:14.163Z,30.97
2018-05-04T22:02:42.744Z,30.73
2018-05-04T22:05:11.144Z,30.40
2018-05-04T22:07:39.554Z,32.87
2018-05-04T22:10:10.082Z,30.10
2018-05-04T22:12:38.548Z,30.20
2018-05-04T22:15:07.401Z,30.20
2018-05-04T22:17:35.712Z,31.37
2018-05-04T22:20:04.235Z,30.10
2018-05-04T22:22:32.661Z,29.77
2018-05-04T22:25:01.065Z,29.80
2018-05-04T22:27:29.493Z,30.40
2018-05-04T22:29:57.899Z,29.70
2018-05-04T22:32:26.676Z,29.70
2018-05-04T22:34:55.051Z,31.60
2018-05-04T22:37:23.488Z,29.40
2018-05-04T22:39:51.882Z,31.27
2018-05-04T22:42:20.287Z,33.47
2018-05-04T22:44:48.670Z,31.83
2018-05-04T22:47:17.678Z,32.80
2018-05-04T22:49:46.901Z,34.10
2018-05-04T22:52:15.454Z,33.50
2018-05-04T22:54:43.877Z,36.37
2018-05-04T22:57:12.258Z,33.47
2018-05-04T22:59:40.478Z,33.20
2018-05-04T23:02:08.914Z,32.97
2018-05-04T23:04:37.777Z,35.33
2018-05-04T23:07:06.010Z,33.63
2018-05-04T23:09:35.064Z,35.93
2018-05-04T23:12:03.469Z,35.30
2018-05-04T23:14:31.865Z,35.40
2018-05-04T23:17:00.243Z,36.80
2018-05-04T23:19:28.645Z,35.13
2018-05-04T23:21:57.329Z,34.73
2018-05-04T23:24:26.091Z,35.87
2018-05-04T23:26:54.476Z,35.30
2018-05-04T23:29:22.892Z,33.10
2018-05-04T23:31:51.272Z,34.07
2018-05-04T23:34:19.657Z,33.17
2018-05-04T23:36:48.053Z,33.47
2018-05-04T23:39:16.500Z,32.67
2018-05-04T23:41:44.887Z,33.00
2018-05-04T23:44:13.361Z,35.00
2018-05-04T23:46:41.779Z,33.90
2018-05-04T23:49:11.626Z,32.27
2018-05-04T23:51:40.789Z,30.77
2018-05-04T23:54:09.753Z,34.13
2018-05-04T23:56:38.157Z,30.80
2018-05-04T23:59:06.551Z,29.97
